createdAt,value
2023-02-13T00:01:34.832Z,10.80
2023-02-13T00:04:04.845Z,7.80
2023-02-13T00:06:33.787Z,8.90
2023-02-13T00:09:05.190Z,8.60
2023-02-13T00:11:35.566Z,8.90
2023-02-13T00:14:04.329Z,8.80
2023-02-13T00:16:34.973Z,8.00
2023-02-13T00:19:04.376Z,10.70
2023-02-13T00:21:33.032Z,8.70
2023-02-13T00:24:01.704Z,8.10
2023-02-13T00:26:31.048Z,12.00
2023-02-13T00:28:59.611Z,14.40
2023-02-13T00:31:29.160Z,11.10
2023-02-13T00:33:58.001Z,10.90
2023-02-13T00:36:26.934Z,9.20
2023-02-13T00:38:56.294Z,6.70
2023-02-13T00:41:25.066Z,4.40
2023-02-13T00:43:53.742Z,7.10
2023-02-13T00:46:22.893Z,8.90
2023-02-13T00:48:51.967Z,43.80
2023-02-13T00:51:20.582Z,9.60
2023-02-13T00:53:49.485Z,15.30
2023-02-13T00:56:18.216Z,15.60
2023-02-13T00:58:46.879Z,15.40
2023-02-13T01:01:16.167Z,23.20
2023-02-13T01:03:46.103Z,38.20
2023-02-13T01:06:14.761Z,31.40
2023-02-13T01:08:43.704Z,14.80
2023-02-13T01:11:13.115Z,8.60
2023-02-13T01:13:41.769Z,15.20
2023-02-13T01:16:10.546Z,114.60
2023-02-13T01:18:39.996Z,221.80
2023-02-13T01:21:16.076Z,101.50
2023-02-13T01:23:45.292Z,93.80
2023-02-13T01:26:19.678Z,90.40
2023-02-13T01:28:48.860Z,24.20
2023-02-13T01:31:17.648Z,14.50
2023-02-13T01:33:46.656Z,9.10
2023-02-13T01:36:16.042Z,11.60
2023-02-13T01:38:44.699Z,9.20
2023-02-13T01:41:14.125Z,8.20
2023-02-13T01:43:50.528Z,8.60
2023-02-13T01:46:24.262Z,8.40
2023-02-13T01:48:57.846Z,7.90
2023-02-13T01:51:33.191Z,8.30
2023-02-13T01:54:07.228Z,9.70
2023-02-13T01:56:58.689Z,9.00
2023-02-13T01:59:37.343Z,6.80
2023-02-13T02:02:07.176Z,6.30
2023-02-13T02:04:39.239Z,9.50
2023-02-13T02:07:19.659Z,8.70
2023-02-13T02:09:51.743Z,10.50
2023-02-13T02:12:32.701Z,9.70
2023-02-13T02:15:03.838Z,9.30
2023-02-13T02:17:34.062Z,7.00
2023-02-13T02:20:09.267Z,6.80
2023-02-13T02:22:50.470Z,8.80
2023-02-13T02:25:54.543Z,8.10
2023-02-13T02:28:34.131Z,5.70
2023-02-13T02:31:13.045Z,17.30
2023-02-13T02:33:48.008Z,30.70
2023-02-13T02:36:27.366Z,10.90
2023-02-13T02:39:06.916Z,8.00
2023-02-13T02:42:05.596Z,7.20
2023-02-13T02:44:44.613Z,8.20
2023-02-13T02:48:00.323Z,8.80
2023-02-13T02:50:41.579Z,9.20
2023-02-13T02:53:28.955Z,9.50
2023-02-13T02:56:23.608Z,9.00
2023-02-13T02:59:15.592Z,10.20
2023-02-13T03:02:05.498Z,6.70
2023-02-13T03:04:59.349Z,9.00
2023-02-13T03:07:28.504Z,6.90
2023-02-13T03:10:20.030Z,6.90
2023-02-13T03:13:13.294Z,10.30
2023-02-13T03:16:04.181Z,9.90
2023-02-13T03:18:58.680Z,8.40
2023-02-13T03:21:46.290Z,9.40
2023-02-13T03:24:28.935Z,8.90
2023-02-13T03:27:39.135Z,7.70
2023-02-13T03:30:22.562Z,7.90
2023-02-13T03:33:03.660Z,7.70
2023-02-13T03:36:04.605Z,7.40
2023-02-13T03:38:56.116Z,6.60
2023-02-13T03:41:55.986Z,9.60
2023-02-13T03:44:38.334Z,8.30
2023-02-13T03:47:10.340Z,11.30
2023-02-13T03:50:06.072Z,10.20
2023-02-13T03:52:48.063Z,6.30
2023-02-13T03:55:37.199Z,6.00
2023-02-13T03:58:37.249Z,7.00
2023-02-13T04:01:10.317Z,39.60
2023-02-13T04:03:50.291Z,43.40
2023-02-13T04:06:26.809Z,25.40
2023-02-13T04:08:56.074Z,26.90
2023-02-13T04:11:31.613Z,13.50
2023-02-13T04:14:05.366Z,15.00
2023-02-13T04:16:42.596Z,9.80
2023-02-13T04:19:12.473Z,10.00
2023-02-13T04:24:10.726Z,13.30
2023-02-13T04:26:43.522Z,12.20
2023-02-13T04:29:12.832Z,13.30
2023-02-13T04:31:41.545Z,16.40
2023-02-13T04:34:10.476Z,16.90
2023-02-13T04:36:39.768Z,16.60
2023-02-13T04:39:09.492Z,13.20
2023-02-13T04:41:41.528Z,16.20
2023-02-13T04:44:10.726Z,17.20
2023-02-13T04:46:39.279Z,13.40
2023-02-13T04:49:08.401Z,14.50
2023-02-13T04:51:37.252Z,12.00
2023-02-13T04:54:05.943Z,11.00
2023-02-13T04:56:35.256Z,13.60
2023-02-13T04:59:04.020Z,8.20
2023-02-13T05:01:32.627Z,12.70
2023-02-13T05:04:01.450Z,12.80
2023-02-13T05:06:30.218Z,9.70
2023-02-13T05:08:58.861Z,10.10
2023-02-13T05:11:28.366Z,11.00
2023-02-13T05:13:57.212Z,12.30
2023-02-13T05:16:25.836Z,13.10
2023-02-13T05:18:55.398Z,11.90
2023-02-13T05:21:43.087Z,13.70
2023-02-13T05:24:12.334Z,16.10
2023-02-13T05:26:41.037Z,15.20
2023-02-13T05:29:20.621Z,16.30
2023-02-13T05:32:00.283Z,11.50
2023-02-13T05:34:29.491Z,9.40
2023-02-13T05:36:58.483Z,13.60
2023-02-13T05:39:27.312Z,10.10
2023-02-13T05:41:56.362Z,10.50
2023-02-13T05:44:25.148Z,13.00
2023-02-13T05:46:54.173Z,15.90
2023-02-13T05:49:23.574Z,24.20
2023-02-13T05:51:52.653Z,13.30
2023-02-13T05:54:21.734Z,13.40
2023-02-13T05:56:50.720Z,10.80
2023-02-13T05:59:19.526Z,12.60
2023-02-13T06:01:48.496Z,12.50
2023-02-13T06:04:17.419Z,10.70
2023-02-13T06:06:46.426Z,12.60
2023-02-13T06:09:15.291Z,10.70
2023-02-13T06:11:44.255Z,9.40
2023-02-13T06:14:14.374Z,12.10
2023-02-13T06:16:43.241Z,9.50
2023-02-13T06:19:12.271Z,12.60
2023-02-13T06:21:41.014Z,8.20
2023-02-13T06:24:10.067Z,11.50
2023-02-13T06:26:39.064Z,13.30
2023-02-13T06:29:09.663Z,10.00
2023-02-13T06:31:38.723Z,10.80
2023-02-13T06:34:08.812Z,8.80
2023-02-13T06:36:38.744Z,9.90
2023-02-13T06:39:07.374Z,14.70
2023-02-13T06:41:36.545Z,13.40
2023-02-13T06:44:05.619Z,12.40
2023-02-13T06:46:34.465Z,9.50
2023-02-13T06:49:03.736Z,12.60
2023-02-13T06:51:32.535Z,10.40
2023-02-13T06:54:01.266Z,9.80
2023-02-13T06:56:30.659Z,13.00
2023-02-13T06:58:59.619Z,9.60
2023-02-13T07:01:28.278Z,10.40
2023-02-13T07:03:57.082Z,12.60
2023-02-13T07:06:26.151Z,14.80
2023-02-13T07:08:56.243Z,11.60
2023-02-13T07:13:54.583Z,13.40
2023-02-13T07:16:23.662Z,17.30
2023-02-13T07:18:53.035Z,21.00
2023-02-13T07:21:21.789Z,9.60
2023-02-13T07:23:50.525Z,14.90
2023-02-13T07:26:20.164Z,14.80
2023-02-13T07:28:50.072Z,17.90
2023-02-13T07:31:21.885Z,17.60
2023-02-13T07:33:51.216Z,16.00
2023-02-13T07:36:19.801Z,18.00
2023-02-13T07:38:48.721Z,15.50
2023-02-13T07:41:17.561Z,18.60
2023-02-13T07:43:46.191Z,16.50
2023-02-13T07:46:15.766Z,19.10
2023-02-13T07:48:44.974Z,18.60
2023-02-13T07:51:13.831Z,19.20
2023-02-13T07:53:42.758Z,18.40
2023-02-13T07:56:11.893Z,19.90
2023-02-13T07:58:41.330Z,19.20
2023-02-13T08:01:12.301Z,17.40
2023-02-13T08:03:41.864Z,15.10
2023-02-13T08:06:10.488Z,13.60
2023-02-13T08:08:39.436Z,20.60
2023-02-13T08:11:45.316Z,17.40
2023-02-13T08:14:14.226Z,18.30
2023-02-13T08:16:43.525Z,14.90
2023-02-13T08:19:12.226Z,19.00
2023-02-13T08:21:41.590Z,23.40
2023-02-13T08:24:11.225Z,16.70
2023-02-13T08:26:40.468Z,22.30
2023-02-13T08:29:11.099Z,18.00
2023-02-13T08:31:40.091Z,17.50
2023-02-13T08:34:09.179Z,20.20
2023-02-13T08:36:37.957Z,23.40
2023-02-13T08:39:07.113Z,19.10
2023-02-13T08:41:35.891Z,18.40
2023-02-13T08:44:06.572Z,19.10
2023-02-13T08:46:35.751Z,19.40
2023-02-13T08:49:04.760Z,16.50
2023-02-13T08:51:34.122Z,14.10
2023-02-13T08:54:37.755Z,11.20
2023-02-13T08:57:05.027Z,21.30
2023-02-13T08:59:33.947Z,22.70
2023-02-13T09:02:02.698Z,39.70
2023-02-13T09:04:33.519Z,14.40
2023-02-13T09:07:02.523Z,13.20
2023-02-13T09:09:31.459Z,15.10
2023-02-13T09:12:01.461Z,17.90
2023-02-13T09:14:30.654Z,11.70
2023-02-13T09:16:59.366Z,15.50
2023-02-13T09:19:28.132Z,16.10
2023-02-13T09:21:56.933Z,14.50
2023-02-13T09:24:26.270Z,13.50
2023-02-13T09:26:55.209Z,19.90
2023-02-13T09:29:24.088Z,11.40
2023-02-13T09:31:53.166Z,12.40
2023-02-13T09:34:22.240Z,9.30
2023-02-13T09:36:54.728Z,13.20
2023-02-13T09:39:23.500Z,14.40
2023-02-13T09:41:54.846Z,20.20
2023-02-13T09:44:43.726Z,20.40
2023-02-13T09:47:29.074Z,12.20
2023-02-13T09:50:05.083Z,13.80
2023-02-13T09:52:37.428Z,10.70
2023-02-13T09:55:18.968Z,15.00
2023-02-13T09:58:03.816Z,14.20
2023-02-13T10:00:40.531Z,12.30
2023-02-13T10:03:27.390Z,5.90
2023-02-13T10:06:15.421Z,10.10
2023-02-13T10:08:55.352Z,10.60
2023-02-13T10:11:41.768Z,9.20
2023-02-13T10:14:36.114Z,7.60
2023-02-13T10:17:13.447Z,8.20
2023-02-13T10:19:47.478Z,9.30
2023-02-13T10:22:41.656Z,20.00
2023-02-13T10:25:31.103Z,44.30
2023-02-13T10:28:40.987Z,36.50
2023-02-13T10:31:14.624Z,9.90
2023-02-13T10:33:58.492Z,17.80
2023-02-13T10:36:32.663Z,17.30
2023-02-13T10:39:07.003Z,11.90
2023-02-13T10:41:53.333Z,26.60
2023-02-13T10:44:50.921Z,25.00
2023-02-13T10:47:31.874Z,15.90
2023-02-13T10:50:34.624Z,17.60
2023-02-13T10:53:28.467Z,13.70
2023-02-13T10:56:03.220Z,13.10
2023-02-13T10:58:43.426Z,29.30
2023-02-13T11:01:23.912Z,18.40
2023-02-13T11:04:05.711Z,13.60
2023-02-13T11:06:38.773Z,12.40
2023-02-13T11:09:09.081Z,17.40
2023-02-13T11:11:41.103Z,9.70
2023-02-13T11:14:29.153Z,19.80
2023-02-13T11:17:00.466Z,16.80
2023-02-13T11:19:29.233Z,15.60
2023-02-13T11:22:30.537Z,20.40
2023-02-13T11:25:07.350Z,18.10
2023-02-13T11:27:40.414Z,22.20
2023-02-13T11:30:24.407Z,15.50
2023-02-13T11:33:21.711Z,11.90
2023-02-13T11:36:03.992Z,14.30
2023-02-13T11:38:33.989Z,26.40
2023-02-13T11:41:15.670Z,22.80
2023-02-13T11:43:52.210Z,18.80
2023-02-13T11:46:24.917Z,16.90
2023-02-13T11:49:24.902Z,25.00
2023-02-13T11:52:06.070Z,14.00
2023-02-13T11:54:36.524Z,46.20
2023-02-13T11:57:34.778Z,20.70
2023-02-13T12:00:37.959Z,15.40
2023-02-13T12:03:24.921Z,17.10
2023-02-13T12:06:18.949Z,18.00
2023-02-13T12:08:50.633Z,17.00
2023-02-13T12:11:26.637Z,14.90
2023-02-13T12:13:58.600Z,17.40
2023-02-13T12:16:37.805Z,22.10
2023-02-13T12:19:20.676Z,32.60
2023-02-13T12:21:49.743Z,26.50
2023-02-13T12:24:44.281Z,40.50
2023-02-13T12:27:26.263Z,34.70
2023-02-13T12:30:11.026Z,28.10
2023-02-13T12:32:54.853Z,28.10
2023-02-13T12:35:43.272Z,23.30
2023-02-13T12:38:27.718Z,26.70
2023-02-13T12:41:21.247Z,17.80
2023-02-13T12:44:25.731Z,19.30
2023-02-13T12:47:11.264Z,17.70
2023-02-13T12:49:40.723Z,19.50
2023-02-13T12:52:27.855Z,29.20
2023-02-13T12:54:59.691Z,18.50
2023-02-13T12:57:59.268Z,14.50
2023-02-13T13:00:49.946Z,18.20
2023-02-13T13:04:20.169Z,23.10
2023-02-13T13:07:03.936Z,25.80
2023-02-13T13:09:35.442Z,34.90
2023-02-13T13:12:28.466Z,61.40
2023-02-13T13:15:09.422Z,48.60
2023-02-13T13:17:59.709Z,25.30
2023-02-13T13:23:19.875Z,60.40
2023-02-13T13:25:55.762Z,80.40
2023-02-13T13:28:43.690Z,58.10
2023-02-13T13:31:14.251Z,113.30
2023-02-13T13:33:46.557Z,147.30
2023-02-13T13:36:33.841Z,79.60
2023-02-13T13:39:36.483Z,69.10
2023-02-13T13:42:40.109Z,109.80
2023-02-13T13:45:41.328Z,154.20
2023-02-13T13:48:39.784Z,80.40
2023-02-13T13:51:14.108Z,70.20
2023-02-13T13:54:05.292Z,71.60
2023-02-13T13:57:02.402Z,21.80
2023-02-13T13:59:34.569Z,25.40
2023-02-13T14:02:18.894Z,69.60
2023-02-13T14:05:10.417Z,78.40
2023-02-13T14:07:42.061Z,46.50
2023-02-13T14:10:27.043Z,38.90
2023-02-13T14:12:55.894Z,51.40
2023-02-13T14:15:38.178Z,66.20
2023-02-13T14:18:21.335Z,113.20
2023-02-13T14:20:50.943Z,154.20
2023-02-13T14:23:37.541Z,77.40
2023-02-13T14:26:15.703Z,86.60
2023-02-13T14:28:58.932Z,66.70
2023-02-13T14:31:34.325Z,40.80
2023-02-13T14:34:31.706Z,45.50
2023-02-13T14:37:23.310Z,29.80
2023-02-13T14:40:17.883Z,27.50
2023-02-13T14:42:52.152Z,155.10
2023-02-13T14:45:32.789Z,157.70
2023-02-13T14:48:08.502Z,84.40
2023-02-13T14:50:49.474Z,36.90
2023-02-13T14:53:32.705Z,18.30
2023-02-13T14:56:11.290Z,70.30
2023-02-13T14:58:50.784Z,136.80
2023-02-13T15:01:36.269Z,102.40
2023-02-13T15:04:35.887Z,54.10
2023-02-13T15:07:10.634Z,33.20
2023-02-13T15:09:49.118Z,31.00
2023-02-13T15:12:34.071Z,40.60
2023-02-13T15:15:22.786Z,25.10
2023-02-13T15:17:59.215Z,20.90
2023-02-13T15:20:31.083Z,24.00
2023-02-13T15:23:00.114Z,23.40
2023-02-13T15:25:38.169Z,27.00
2023-02-13T15:28:15.574Z,25.30
2023-02-13T15:30:57.910Z,25.20
2023-02-13T15:33:33.264Z,24.20
2023-02-13T15:36:06.886Z,29.10
2023-02-13T15:38:38.318Z,26.50
2023-02-13T15:41:13.270Z,26.50
2023-02-13T15:43:48.302Z,24.50
2023-02-13T15:46:25.884Z,23.30
2023-02-13T15:49:01.751Z,14.70
2023-02-13T15:51:31.761Z,15.70
2023-02-13T15:54:07.168Z,25.00
2023-02-13T15:56:38.400Z,26.40
2023-02-13T15:59:09.272Z,22.70
2023-02-13T16:01:40.042Z,25.90
2023-02-13T16:04:12.739Z,37.00
2023-02-13T16:06:44.013Z,116.50
2023-02-13T16:09:42.598Z,362.00
2023-02-13T16:12:26.334Z,499.10
2023-02-13T16:15:06.298Z,242.50
2023-02-13T16:17:37.653Z,161.70
2023-02-13T16:20:14.624Z,118.60
2023-02-13T16:22:46.582Z,68.20
2023-02-13T16:25:24.594Z,50.70
2023-02-13T16:27:59.837Z,32.00
2023-02-13T16:30:35.852Z,24.40
2023-02-13T16:33:20.232Z,28.30
2023-02-13T16:35:58.104Z,17.10
2023-02-13T16:38:42.473Z,19.80
2023-02-13T16:41:23.754Z,24.50
2023-02-13T16:43:58.064Z,43.90
2023-02-13T16:46:32.735Z,41.90
2023-02-13T16:49:15.446Z,31.70
2023-02-13T16:51:51.799Z,28.50
2023-02-13T16:54:32.481Z,28.30
2023-02-13T16:57:19.064Z,25.60
2023-02-13T16:59:47.904Z,19.00
2023-02-13T17:02:25.229Z,28.90
2023-02-13T17:05:10.297Z,33.80
2023-02-13T17:07:51.494Z,44.20
2023-02-13T17:10:23.560Z,85.50
2023-02-13T17:12:53.121Z,53.70
2023-02-13T17:15:25.350Z,35.70
2023-02-13T17:17:55.013Z,40.40
2023-02-13T17:20:27.618Z,33.40
2023-02-13T17:23:02.252Z,35.60
2023-02-13T17:25:36.953Z,60.30
2023-02-13T17:28:14.634Z,28.90
2023-02-13T17:30:44.846Z,32.60
2023-02-13T17:33:23.846Z,28.80
2023-02-13T17:35:53.622Z,28.20
2023-02-13T17:38:23.279Z,50.80
2023-02-13T17:40:52.246Z,32.40
2023-02-13T17:43:21.682Z,26.90
2023-02-13T17:45:50.775Z,24.50
2023-02-13T17:48:22.180Z,20.30
2023-02-13T17:50:54.944Z,25.70
2023-02-13T17:53:26.471Z,26.90
2023-02-13T17:55:56.222Z,17.80
2023-02-13T17:58:28.530Z,20.70
2023-02-13T18:00:57.794Z,34.80
2023-02-13T18:03:41.767Z,26.90
2023-02-13T18:09:34.990Z,15.40
2023-02-13T18:12:29.472Z,23.00
2023-02-13T18:15:22.054Z,18.20
2023-02-13T18:18:10.282Z,37.00
2023-02-13T18:21:12.596Z,24.60
2023-02-13T18:24:05.999Z,14.90
2023-02-13T18:27:06.067Z,16.60
2023-02-13T18:30:00.096Z,50.40
2023-02-13T18:32:59.095Z,17.70
2023-02-13T18:36:04.496Z,19.80
2023-02-13T18:38:50.449Z,18.30
2023-02-13T18:41:39.053Z,19.80
2023-02-13T18:44:28.073Z,16.80
2023-02-13T18:47:02.141Z,23.00
2023-02-13T18:49:31.516Z,17.80
2023-02-13T18:52:01.917Z,13.80
2023-02-13T18:54:31.086Z,30.40
2023-02-13T18:57:00.253Z,23.80
2023-02-13T18:59:29.804Z,26.90
2023-02-13T19:02:04.027Z,23.00
2023-02-13T19:04:36.096Z,28.30
2023-02-13T19:07:06.954Z,24.20
2023-02-13T19:09:40.354Z,19.40
2023-02-13T19:12:09.408Z,19.70
2023-02-13T19:14:39.631Z,16.30
2023-02-13T19:17:09.725Z,56.00
2023-02-13T19:22:07.134Z,26.80
2023-02-13T19:24:35.683Z,66.90
2023-02-13T19:27:04.845Z,25.30
2023-02-13T19:29:33.765Z,93.90
2023-02-13T19:32:02.565Z,91.80
2023-02-13T19:34:31.858Z,43.40
2023-02-13T19:37:00.601Z,71.00
2023-02-13T19:39:29.155Z,41.40
2023-02-13T19:41:58.766Z,46.30
2023-02-13T19:44:28.127Z,109.80
2023-02-13T19:46:57.492Z,26.50
2023-02-13T19:49:26.744Z,36.60
2023-02-13T19:51:55.885Z,27.80
2023-02-13T19:54:24.844Z,153.40
2023-02-13T19:57:00.907Z,35.50
2023-02-13T19:59:30.202Z,64.10
2023-02-13T20:02:01.483Z,49.40
2023-02-13T20:04:32.688Z,44.00
2023-02-13T20:07:01.416Z,24.60
2023-02-13T20:09:30.400Z,26.20
2023-02-13T20:11:59.364Z,25.10
2023-02-13T20:14:28.396Z,32.20
2023-02-13T20:19:28.506Z,29.60
2023-02-13T20:24:25.836Z,35.10
2023-02-13T20:26:59.509Z,53.10
2023-02-13T20:29:28.651Z,29.70
2023-02-13T20:31:57.369Z,35.80
2023-02-13T20:34:27.898Z,26.70
2023-02-13T20:36:58.684Z,27.60
2023-02-13T20:39:27.555Z,26.70
2023-02-13T20:41:56.424Z,27.90
2023-02-13T20:44:25.214Z,34.80
2023-02-13T20:46:55.525Z,23.70
2023-02-13T20:49:26.061Z,27.50
2023-02-13T20:51:55.589Z,27.90
2023-02-13T20:54:24.670Z,26.90
2023-02-13T20:56:53.448Z,29.80
2023-02-13T20:59:22.906Z,28.60
2023-02-13T21:01:51.767Z,33.40
2023-02-13T21:04:21.252Z,31.40
2023-02-13T21:06:50.366Z,33.90
2023-02-13T21:09:19.329Z,37.20
2023-02-13T21:11:48.036Z,31.40
2023-02-13T21:14:17.196Z,36.70
2023-02-13T21:16:45.923Z,30.00
2023-02-13T21:19:17.496Z,37.20
2023-02-13T21:21:47.726Z,26.60
2023-02-13T21:24:20.144Z,35.30
2023-02-13T21:26:52.733Z,28.10
2023-02-13T21:29:21.707Z,30.70
2023-02-13T21:31:52.158Z,32.90
2023-02-13T21:34:21.017Z,31.30
2023-02-13T21:36:49.856Z,34.20
2023-02-13T21:39:22.041Z,35.00
2023-02-13T21:41:50.923Z,32.70
2023-02-13T21:44:19.772Z,40.70
2023-02-13T21:46:49.268Z,35.40
2023-02-13T21:49:19.227Z,32.70
2023-02-13T21:51:48.019Z,37.20
2023-02-13T21:54:16.945Z,43.80
2023-02-13T21:56:45.897Z,38.10
2023-02-13T21:59:16.516Z,41.40
2023-02-13T22:01:47.510Z,38.50
2023-02-13T22:04:17.407Z,35.80
2023-02-13T22:06:50.172Z,35.40
2023-02-13T22:09:20.905Z,35.50
2023-02-13T22:11:51.692Z,32.20
2023-02-13T22:14:22.386Z,33.00
2023-02-13T22:16:52.628Z,32.50
2023-02-13T22:21:50.777Z,31.80
2023-02-13T22:24:19.386Z,32.40
2023-02-13T22:26:48.227Z,30.60
2023-02-13T22:29:19.038Z,31.80
2023-02-13T22:31:47.738Z,33.80
2023-02-13T22:34:16.879Z,39.90
2023-02-13T22:36:46.003Z,35.70
2023-02-13T22:39:14.659Z,40.90
2023-02-13T22:41:46.004Z,47.90
2023-02-13T22:44:15.197Z,45.40
2023-02-13T22:46:45.586Z,41.00
2023-02-13T22:49:14.275Z,43.10
2023-02-13T22:51:43.842Z,33.50
2023-02-13T22:54:12.498Z,29.70
2023-02-13T22:56:41.452Z,34.00
2023-02-13T22:59:12.336Z,33.50
2023-02-13T23:01:40.879Z,30.90
2023-02-13T23:04:10.226Z,33.80
2023-02-13T23:06:39.620Z,33.60
2023-02-13T23:09:09.022Z,33.10
2023-02-13T23:11:56.599Z,22.70
2023-02-13T23:14:25.913Z,34.40
2023-02-13T23:17:13.634Z,29.30
2023-02-13T23:19:42.517Z,27.20
2023-02-13T23:22:13.725Z,30.80
2023-02-13T23:24:42.675Z,30.50
2023-02-13T23:27:13.115Z,28.20
2023-02-13T23:29:42.180Z,31.00
2023-02-13T23:32:11.198Z,31.30
2023-02-13T23:34:40.215Z,22.30
2023-02-13T23:37:09.078Z,30.10
2023-02-13T23:39:38.027Z,28.10
2023-02-13T23:42:07.075Z,31.80
2023-02-13T23:44:35.969Z,33.90
2023-02-13T23:47:04.829Z,33.80
2023-02-13T23:49:33.579Z,31.70
2023-02-13T23:52:02.450Z,35.90
2023-02-13T23:54:31.206Z,36.90
2023-02-13T23:57:00.661Z,31.70
2023-02-13T23:59:29.571Z,38.00
